Site contains unofficial IBTrACS data. Visit the IBTrACS Website to access archived data.

1883 Hurricane NOT_NAMED (1883247N14302)


IBTrACS version v04r00. Visit IBTrACS website for data access.
Please direct all questions to the IBTrACS Q and A forum

Storm track - Intensity - Wind Radii - Intensity Data - Source Data - All data

Summary Information

Storm ID 1883247N14302
Start Sep 4 00Z
Landfall Sep 6 09Z, Sep 11 13Z
Max Intensity 110 kt (Sep 4 03Z), 960 mb (Sep 9 18Z)
End Sep 13 12Z
ATCF IDs ,AL031883
Track status Best track data.

Storm track plot

Map of storm track

Intensity plots

Map of storm track

Radial wind information

No radial wind information for this storm


Position and Intensity Table

BASIN ISO_TIME_________ NATURE LAT LON WMO WIND USA WIND MLC WIND MLC PRES
degrees north degrees east kts kts kts mb
NA 1883-09-04 00:00:00 TS 14.00 -57.90 110 110
NA 03:00:00 TS 14.21 -58.57 110
NA 06:00:00 TS 14.40 -59.20 110 110
NA 09:00:00 TS 14.56 -59.76 110
NA 12:00:00 TS 14.70 -60.30 110 110
NA 15:00:00 TS 14.84 -60.89 110
NA 18:00:00 TS 15.00 -61.50 110 110
NA 21:00:00 TS 15.18 -62.14 110
NA 1883-09-05 00:00:00 TS 15.40 -62.80 110 110
NA 03:00:00 TS 15.66 -63.44 110
NA 06:00:00 TS 15.90 -64.10 110 110
NA 09:00:00 TS 16.05 -64.80 110
NA 12:00:00 TS 16.20 -65.50 110 110
NA 15:00:00 TS 16.40 -65.94 110
NA 18:00:00 TS 16.68 -66.52 110 110 110
NA 21:00:00 TS 17.01 -67.25 110 110
NA 1883-09-06 00:00:00 TS 17.37 -68.07 110 110 110
NA 03:00:00 TS 17.70 -68.97 110 110
NA 06:00:00 TS 18.03 -69.83 110 110 110
NA 09:00:00 TS 18.37 -70.61 95 95
NA 12:00:00 TS 18.73 -71.30 80 80 80
NA 15:00:00 TS 19.17 -71.89 75 72
NA 18:00:00 TS 19.63 -72.43 70 70 65
NA 21:00:00 TS 20.10 -73.01 70 60
NA 1883-09-07 00:00:00 TS 20.53 -73.60 70 70 55
NA 03:00:00 TS 20.91 -74.21 70 55
NA 06:00:00 TS 21.23 -74.77 70 70 55
NA 09:00:00 TS 21.54 -75.25 70 57
NA 12:00:00 TS 21.83 -75.63 70 70 60
NA 15:00:00 TS 22.12 -75.92 70 62
NA 18:00:00 TS 22.40 -76.13 70 70 65
NA 21:00:00 TS 22.68 -76.32 75 70
NA 1883-09-08 00:00:00 TS 22.97 -76.47 80 80 75
NA 03:00:00 TS 23.25 -76.61 80 77
NA 06:00:00 TS 23.53 -76.73 80 80 80
NA 09:00:00 TS 23.81 -76.87 85 82
NA 12:00:00 TS 24.10 -77.00 90 90 85
NA 15:00:00 TS 24.43 -77.14 90 87
NA 18:00:00 TS 24.80 -77.27 90 90 90
NA 21:00:00 TS 25.19 -77.39 90 95
NA 1883-09-09 00:00:00 TS 25.60 -77.50 90 90 100 961
NA 03:00:00 TS 26.03 -77.62 90 100
NA 06:00:00 TS 26.47 -77.73 90 90 100
NA 09:00:00 TS 26.91 -77.84 90 100
NA 12:00:00 TS 27.33 -77.93 90 90 100
NA 15:00:00 TS 27.71 -77.99 90 100
NA 18:00:00 TS 28.07 -78.03 90 90 100 960
NA 21:00:00 TS 28.43 -78.08 90 100
NA 1883-09-10 00:00:00 TS 28.80 -78.13 90 90 100
NA 03:00:00 TS 29.20 -78.18 90 97
NA 06:00:00 TS 29.60 -78.23 90 90 95
NA 09:00:00 TS 29.96 -78.29 90 92
NA 12:00:00 TS 30.33 -78.33 90 90 90
NA 15:00:00 TS 30.79 -78.37 90 90
NA 18:00:00 TS 31.27 -78.40 90 90 90
NA 21:00:00 TS 31.74 -78.45 90 87
NA 1883-09-11 00:00:00 TS 32.20 -78.50 90 90 85
NA 03:00:00 TS 32.61 -78.51 90 85
NA 06:00:00 TS 33.00 -78.50 90 90 85
NA 09:00:00 TS 33.42 -78.46 90 82
NA 12:00:00 TS 33.80 -78.43 90 90 80
NA 13:00:00 TS 33.90 -78.43 90 90 77
NA 15:00:00 TS 34.10 -78.42 81 72
NA 18:00:00 TS 34.40 -78.37 70 70 65
NA 21:00:00 TS 34.71 -78.33 60 57
NA 1883-09-12 00:00:00 TS 35.00 -78.30 50 50 50
NA 03:00:00 TS 35.20 -78.25 50 47
NA 06:00:00 TS 35.40 -78.20 50 50 45
NA 09:00:00 TS 35.65 -78.16 45 42
NA 12:00:00 TS 36.00 -78.10 40 40 40
NA 15:00:00 TS 36.47 -78.01 40 37
NA 18:00:00 TS 37.00 -77.90 40 40 35
NA 21:00:00 TS 37.48 -77.76 35 32
NA 1883-09-13 00:00:00 TS 38.00 -77.60 30 30 30
NA 03:00:00 TS 38.62 -77.43 30 30
NA 06:00:00 TS 39.30 -77.30 30 30 30
NA 09:00:00 TS 40.04 -77.35 25
NA 12:00:00 TS 40.80 -77.50 20 1013

Source Information

Agency Information
USA hurdat2-1851-2019-042820.txt:Line=4704:UNNAMED
TOKYO
CMA
HKO
NEWDELHI
REUNION
BOM
NADI
WELLINGTON
DS824
TD9636
TD9635
NEUMANN
MLC

All available IBTrACS Data

SEASON BASIN SUBBASIN ISO_TIME_________ NATURE LAT LON WMO WIND WMO AGENCY DIST2LAND LANDFALL IFLAG USA AGENCY USA ATCF_ID USA LAT USA LON USA RECORD USA STATUS USA WIND USA SSHS MLC LAT MLC LON MLC CLASS MLC WIND MLC PRES STORM SPEED STORM DIR
Year degrees north degrees east kts km km degrees north degrees east kts 1 degrees north degrees east kts mb kts degrees
1883 NA NA 1883-09-04 00:00:00 TS 14.00 -57.90 110 hurdat_atl 500 474 O_____________ hurdat_atl AL031883 14.00 -57.90 HU 110 3 14 288
1883 NA NA 03:00:00 TS 14.21 -58.57 470 457 P_____________ AL031883 14.21 -58.57 HU 110 3 13 288
1883 NA NA 06:00:00 TS 14.40 -59.20 110 hurdat_atl 458 448 O_____________ hurdat_atl AL031883 14.40 -59.20 HU 110 3 12 287
1883 NA CS 09:00:00 TS 14.56 -59.76 455 447 P_____________ AL031883 14.56 -59.76 HU 110 3 11 286
1883 NA CS 12:00:00 TS 14.70 -60.30 110 hurdat_atl 454 451 O_____________ hurdat_atl AL031883 14.70 -60.30 HU 110 3 11 285
1883 NA CS 15:00:00 TS 14.84 -60.89 459 459 P_____________ AL031883 14.84 -60.89 HU 110 3 12 285
1883 NA CS 18:00:00 TS 15.00 -61.50 110 hurdat_atl 481 481 O_____________ hurdat_atl AL031883 15.00 -61.50 HU 110 3 13 286
1883 NA CS 21:00:00 TS 15.18 -62.14 501 432 P_____________ AL031883 15.18 -62.14 HU 110 3 13 288
1883 NA CS 1883-09-05 00:00:00 TS 15.40 -62.80 110 hurdat_atl 432 370 O_____________ hurdat_atl AL031883 15.40 -62.80 HU 110 3 13 291
1883 NA CS 03:00:00 TS 15.66 -63.44 362 296 P_____________ AL031883 15.66 -63.44 HU 110 3 14 292
1883 NA CS 06:00:00 TS 15.90 -64.10 110 hurdat_atl 296 247 O_____________ hurdat_atl AL031883 15.90 -64.10 HU 110 3 14 287
1883 NA CS 09:00:00 TS 16.05 -64.80 247 203 P_____________ AL031883 16.05 -64.80 HU 110 3 14 283
1883 NA CS 12:00:00 TS 16.20 -65.50 110 hurdat_atl 203 170 O_____________ hurdat_atl AL031883 16.20 -65.50 HU 110 3 12 288
1883 NA CS 15:00:00 TS 16.40 -65.94 170 138 P_____________ AL031883 16.42 -66.14 HU 110 3 11 296
1883 NA CS 18:00:00 TS 16.68 -66.52 110 hurdat_atl 138 100 O____________O hurdat_atl AL031883 16.70 -66.80 HU 110 3 16.60 -65.40 MH 110 14 296
1883 NA CS 21:00:00 TS 17.01 -67.25 100 89 P____________P AL031883 17.04 -67.53 HU 110 3 16.94 -66.49 MH 110 16 295
1883 NA CS 1883-09-06 00:00:00 TS 17.37 -68.07 110 hurdat_atl 103 56 O____________O hurdat_atl AL031883 17.40 -68.30 HU 110 3 17.30 -67.60 MH 110 18 293
1883 NA CS 03:00:00 TS 17.70 -68.97 59 44 P____________P AL031883 17.70 -69.09 HU 110 3 17.70 -68.72 MH 110 18 292
1883 NA CS 06:00:00 TS 18.03 -69.83 110 hurdat_atl 46 0 O____________O hurdat_atl AL031883 18.00 -69.90 HU 110 3 18.10 -69.70 MH 110 17 293
1883 NA CS 09:00:00 TS 18.37 -70.61 0 0 P____________P AL031883 18.32 -70.74 HU 95 2 18.46 -70.37 MH 95 16 297
1883 NA NA 12:00:00 TS 18.73 -71.30 80 hurdat_atl 0 0 O____________O hurdat_atl AL031883 18.70 -71.50 HU 80 1 18.80 -70.90 HU 80 15 304
1883 NA NA 15:00:00 TS 19.17 -71.89 0 0 P____________P AL031883 19.18 -72.09 HU 75 1 19.15 -71.49 HU 72 14 310
1883 NA NA 18:00:00 TS 19.63 -72.43 70 hurdat_atl 0 0 O____________O hurdat_atl AL031883 19.70 -72.60 HU 70 1 19.50 -72.10 HU 65 14 311
1883 NA NA 21:00:00 TS 20.10 -73.01 22 22 P____________P AL031883 20.22 -73.15 HU 70 1 19.85 -72.74 HU 60 14 309
1883 NA NA 1883-09-07 00:00:00 TS 20.53 -73.60 70 hurdat_atl 44 30 O____________O hurdat_atl AL031883 20.70 -73.70 HU 70 1 20.20 -73.40 TS 55 14 306
1883 NA NA 03:00:00 TS 20.91 -74.21 53 53 P____________P AL031883 21.08 -74.28 HU 70 1 20.56 -74.06 TS 55 13 303
1883 NA NA 06:00:00 TS 21.23 -74.77 70 hurdat_atl 67 67 O____________O hurdat_atl AL031883 21.40 -74.80 HU 70 1 20.90 -74.70 TS 55 12 303
1883 NA NA 09:00:00 TS 21.54 -75.25 63 63 P____________P AL031883 21.71 -75.20 HU 70 1 21.20 -75.36 TS 57 10 307
1883 NA NA 12:00:00 TS 21.83 -75.63 70 hurdat_atl 88 84 O____________O hurdat_atl AL031883 22.00 -75.50 HU 70 1 21.50 -75.90 TS 60 9 313
1883 NA NA 15:00:00 TS 22.12 -75.92 105 105 P____________P AL031883 22.26 -75.78 HU 70 1 21.84 -76.21 TS 62 7 321
1883 NA NA 18:00:00 TS 22.40 -76.13 70 hurdat_atl 129 121 O____________O hurdat_atl AL031883 22.50 -76.00 HU 70 1 22.20 -76.40 HU 65 7 327
1883 NA NA 21:00:00 TS 22.68 -76.32 138 133 P____________P AL031883 22.75 -76.17 HU 75 1 22.55 -76.62 HU 70 6 332
1883 NA NA 1883-09-08 00:00:00 TS 22.97 -76.47 80 hurdat_atl 157 157 O____________O hurdat_atl AL031883 23.00 -76.30 HU 80 1 22.90 -76.80 HU 75 6 335
1883 NA NA 03:00:00 TS 23.25 -76.61 175 150 P____________P AL031883 23.25 -76.45 HU 80 1 23.25 -76.92 HU 77 6 337
1883 NA NA 06:00:00 TS 23.53 -76.73 80 hurdat_atl 150 112 O____________O hurdat_atl AL031883 23.50 -76.60 HU 80 1 23.60 -77.00 HU 80 6 337
1883 NA NA 09:00:00 TS 23.81 -76.87 112 83 P____________P AL031883 23.73 -76.75 HU 85 2 23.95 -77.10 HU 82 6 337
1883 NA NA 12:00:00 TS 24.10 -77.00 90 hurdat_atl 83 61 O____________O hurdat_atl AL031883 24.00 -76.90 HU 90 2 24.30 -77.20 HU 85 7 339
1883 NA NA 15:00:00 TS 24.43 -77.14 61 50 P____________P AL031883 24.33 -77.05 HU 90 2 24.64 -77.31 HU 87 7 341
1883 NA NA 18:00:00 TS 24.80 -77.27 90 hurdat_atl 51 51 O____________O hurdat_atl AL031883 24.70 -77.20 HU 90 2 25.00 -77.40 HU 90 8 343
1883 NA NA 21:00:00 TS 25.19 -77.39 60 60 P____________P AL031883 25.08 -77.35 HU 90 2 25.39 -77.46 HU 95 8 345
1883 NA NA 1883-09-09 00:00:00 TS 25.60 -77.50 90 hurdat_atl 75 75 O____________O hurdat_atl AL031883 25.50 -77.50 HU 90 2 25.80 -77.50 MH 100 961 9 346
1883 NA NA 03:00:00 TS 26.03 -77.62 108 108 P____________P AL031883 25.94 -77.66 HU 90 2 26.20 -77.54 MH 100 9 346
1883 NA NA 06:00:00 TS 26.47 -77.73 90 hurdat_atl 159 157 O____________O hurdat_atl AL031883 26.40 -77.80 HU 90 2 26.60 -77.60 MH 100 9 347
1883 NA NA 09:00:00 TS 26.91 -77.84 202 202 P____________P AL031883 26.86 -77.92 HU 90 2 27.00 -77.70 MH 100 9 348
1883 NA NA 12:00:00 TS 27.33 -77.93 90 hurdat_atl 215 208 O____________O hurdat_atl AL031883 27.30 -78.00 HU 90 2 27.40 -77.80 MH 100 8 351
1883 NA NA 15:00:00 TS 27.71 -77.99 221 221 P____________P AL031883 27.66 -78.06 HU 90 2 27.80 -77.86 MH 100 7 353
1883 NA NA 18:00:00 TS 28.07 -78.03 90 hurdat_atl 238 233 O____________O hurdat_atl AL031883 28.00 -78.10 HU 90 2 28.20 -77.90 MH 100 960 7 353
1883 NA NA 21:00:00 TS 28.43 -78.08 234 234 P____________P AL031883 28.34 -78.15 HU 90 2 28.60 -77.95 MH 100 7 353
1883 NA NA 1883-09-10 00:00:00 TS 28.80 -78.13 90 hurdat_atl 236 228 O____________O hurdat_atl AL031883 28.70 -78.20 HU 90 2 29.00 -78.00 MH 100 8 354
1883 NA NA 03:00:00 TS 29.20 -78.18 236 236 P____________P AL031883 29.10 -78.25 HU 90 2 29.40 -78.05 MH 97 8 354
1883 NA NA 06:00:00 TS 29.60 -78.23 90 hurdat_atl 254 252 O____________O hurdat_atl AL031883 29.50 -78.30 HU 90 2 29.80 -78.10 HU 95 8 353
1883 NA NA 09:00:00 TS 29.96 -78.29 270 270 P____________P AL031883 29.83 -78.35 HU 90 2 30.20 -78.16 HU 92 7 353
1883 NA NA 12:00:00 TS 30.33 -78.33 90 hurdat_atl 284 251 O____________O hurdat_atl AL031883 30.20 -78.40 HU 90 2 30.60 -78.20 HU 90 8 356
1883 NA NA 15:00:00 TS 30.79 -78.37 251 217 P____________P AL031883 30.68 -78.45 HU 90 2 31.00 -78.20 HU 90 9 357
1883 NA NA 18:00:00 TS 31.27 -78.40 90 hurdat_atl 209 167 O____________O hurdat_atl AL031883 31.20 -78.50 HU 90 2 31.40 -78.20 HU 90 10 355
1883 NA NA 21:00:00 TS 31.74 -78.45 167 122 P____________P AL031883 31.71 -78.56 HU 90 2 31.80 -78.25 HU 87 9 355
1883 NA NA 1883-09-11 00:00:00 TS 32.20 -78.50 90 hurdat_atl 122 93 O____________O hurdat_atl AL031883 32.20 -78.60 HU 90 2 32.20 -78.30 HU 85 9 356
1883 NA NA 03:00:00 TS 32.61 -78.51 93 68 P____________P AL031883 32.61 -78.62 HU 90 2 32.60 -78.31 HU 85 8 1
1883 NA NA 06:00:00 TS 33.00 -78.50 90 hurdat_atl 68 49 O____________O hurdat_atl AL031883 33.00 -78.60 HU 90 2 33.00 -78.30 HU 85 8 2
1883 NA NA 09:00:00 TS 33.42 -78.46 49 11 P____________P AL031883 33.43 -78.54 HU 90 2 33.41 -78.30 HU 82 8 4
1883 NA NA 12:00:00 TS 33.80 -78.43 90 hurdat_atl 11 0 O____________O hurdat_atl AL031883 33.80 -78.50 HU 90 2 33.80 -78.30 HU 80 7 3
1883 NA NA 13:00:00 TS 33.90 -78.43 90 hurdat_atl 0 0 O____________P hurdat_atl AL031883 33.90 -78.50 L HU 90 2 33.91 -78.30 HU 77 6 0
1883 NA NA 15:00:00 TS 34.10 -78.42 0 0 P____________P AL031883 34.10 -78.47 HU 81 1 34.11 -78.30 HU 72 6 6
1883 NA NA 18:00:00 TS 34.40 -78.37 70 hurdat_atl 0 0 O____________O hurdat_atl AL031883 34.40 -78.40 HU 70 1 34.40 -78.30 HU 65 6 7
1883 NA NA 21:00:00 TS 34.71 -78.33 0 0 P____________P AL031883 34.71 -78.35 HU 60 0 34.72 -78.31 HU 57 6 5
1883 NA NA 1883-09-12 00:00:00 TS 35.00 -78.30 50 hurdat_atl 0 0 O____________O hurdat_atl AL031883 35.00 -78.30 TS 50 0 35.00 -78.30 TS 50 5 7
1883 NA NA 03:00:00 TS 35.20 -78.25 0 0 P____________P AL031883 35.20 -78.25 TS 50 0 35.20 -78.26 TS 47 4 11
1883 NA NA 06:00:00 TS 35.40 -78.20 50 hurdat_atl 0 0 O____________O hurdat_atl AL031883 35.40 -78.20 TS 50 0 35.40 -78.20 TS 45 5 10
1883 NA NA 09:00:00 TS 35.65 -78.16 0 0 P____________P AL031883 35.65 -78.16 TS 45 0 35.65 -78.16 TS 42 6 8
1883 NA NA 12:00:00 TS 36.00 -78.10 40 hurdat_atl 0 0 O____________O hurdat_atl AL031883 36.00 -78.10 TS 40 0 36.00 -78.10 TS 40 8 8
1883 NA NA 15:00:00 TS 36.47 -78.01 0 0 P____________P AL031883 36.47 -78.01 TS 40 0 36.47 -78.01 TS 37 10 9
1883 NA NA 18:00:00 TS 37.00 -77.90 40 hurdat_atl 0 0 O____________O hurdat_atl AL031883 37.00 -77.90 TS 40 0 37.00 -77.90 TS 35 10 11
1883 NA NA 21:00:00 TS 37.48 -77.76 0 0 P____________P AL031883 37.48 -77.76 TS 35 0 37.48 -77.76 TS 32 10 13
1883 NA NA 1883-09-13 00:00:00 TS 38.00 -77.60 30 hurdat_atl 0 0 O____________O hurdat_atl AL031883 38.00 -77.60 TD 30 -1 38.00 -77.60 TD 30 12 13
1883 NA NA 03:00:00 TS 38.62 -77.43 0 0 P____________P AL031883 38.62 -77.45 TD 30 -1 38.61 -77.41 TD 30 13 10
1883 NA NA 06:00:00 TS 39.30 -77.30 30 hurdat_atl 0 0 O____________O hurdat_atl AL031883 39.30 -77.30 TD 30 -1 39.30 -77.30 TD 30 14 3
1883 NA NA 09:00:00 TS 40.04 -77.35 0 0 _____________P AL031883 TD -1 40.04 -77.35 TD 25 15 354
1883 NA NA 12:00:00 TS 40.80 -77.50 0 _____________O 40.80 -77.50 TD 20 1013 15 352